메인 페이지
METAR-TAF:

METAR-TAF

공항 :

St. Augustine Airport

세인트오거스틴, 플로리다, 미국

위도: 29-57-33N, 경도: 081-20-23W, 고도: 3m

현재 날씨관측

예보는 58분 전, 18:56시(UTC)에 발표되었습니다.
서남서11kt, 순간 최대 풍속 21kt
온도 21°C
습도 49%
기압 1009 hPa
시정: 16.1km
맑음

METAR: KSGJ 301856Z 24011G21KT 10SM CLR 21/10 A2981 RMK AO2 SLP092 T02060100 $

시각: 14:54 (19:54 UTC)

예보

예보는 38분 전, 19:16시(UTC)에 발표되었습니다.
예보 대상 시간: 30일 19시부터 01일 18시까지 (UTC)
서남서11kt, 순간 최대 풍속 21kt
시정: 10km
고도 3500ft 상공 구름 조금
30일 2300시부터 (UTC)
서북서11kt
시정: 10km
고도 2500ft 상공 구름 조금
01일 1400시부터 (UTC)
서북서12kt, 순간 최대 풍속 22kt
시정: 10km
맑음

TAF: KSGJ 301916Z 3019/0118 25011G21KT P6SM FEW035 FM302300 29011KT P6SM FEW025 FM011400 30012G22KT P6SM SKC

4,000개 이상의 공항 관측 자료 및 예보 (METAR 및 TAF 보고).

지도상에서 검색 가능한 기상관측소가 노란 점과 빨간 점으로 표시되어 있습니다.

기상관측소 명을 보려면 표시 위로 마우스를 이동하세요.

날씨 관측과 예보를 보려면 클릭하세요.

지도 변경 : 확대하려면 엑스 표시가 있는 녹색 버튼, 축소하려면 빼기 표시가 있는 녹색 버튼, 다음 페이지의 지도를 보려면 녹색 화살표를 클릭하세요.


METAR-TAF: